Windsor, CA (95492)

12:08 PM PST on December 08, 2016 (GMT -0800)
Commons ct | | Change Station

Elev 121 ft 38.55 °N, 122.82 °W | Updated 35 seconds ago

Rain
Rain
49.8 °F
Feels Like 50 °F
N
0.0
Wind Variable Wind from SW

Today
High -- | Low -- °F
--% Chance of Precip.
Yesterday
High -- | Low -- °F
Precip. -- in
Pressure 30.09 in
Visibility 1.5 miles
Clouds Overcast 400 ft
Windchill 50 °F
Dew Point 47 °F
Humidity 91%
Rainfall 0.00 in
Snow Depth Not available.
7:16 AM 4:50 PM
Waxing Gibbous, 66% visible
METAR KSTS 081953Z 33003KT 1 1/2SM -RA BR OVC004 09/09 A3010 RMK AO2 SLP188 P0002 T00940094
Pressure 30.09 in
Visibility 1.5 miles
Clouds Overcast 400 ft
Windchill 50 °F
Dew Point 47 °F
Humidity 91%
Rainfall 0.00 in
Snow Depth Not available.
7:16 AM 4:50 PM
Waxing Gibbous, 66% visible
METAR KSTS 081953Z 33003KT 1 1/2SM -RA BR OVC004 09/09 A3010 RMK AO2 SLP188 P0002 T00940094

10-Day Weather Forecast

Almanac

Astronomy

Dec. 08, 2016 Rise Set
Actual Time
Civil Twilight
Nautical Twilight
Astronomical Twilight
Moon
Length of Visible Light
Length of Day
Tomorrow will be .
, % of the Moon is Illuminated

Today's Extremes

State Highs State Lows

Community

WunderPhotos

Upload Photos

1,956,277 photos uploaded!

WunderBlog® & News

Nearby

Air Quality

  Air Quality AQ Index Pollutant
Not available.

Snow Depth

Station Depth Elevation

Earthquake Activity

City Distance Mag. Time & Date
Minimum magnitude displayed is 2.5.

Coastal Water Temperatures

Place Temperature

Stations

Nearby Weather Stations

Station Location Temp. Windchill Dew Point Humidity Wind Precip. Elev Updated Type
                   

Watches & Warnings

There are currently no watches in effect.